Time;durP1;ratioP1;P1;durP2;ratioP2;P2;SDS_P1;SDS_P2;PMS_P1;PMS_P2;Temp;Humidity;BMP_temperature;BMP_pressure;BME280_temperature;BME280_humidity;BME280_pressure;Samples;Min_cycle;Max_cycle;Signal;HPM_P1;HPM_P2
2022/07/15 00:00:13;;;;;;;3.97;2.80;;;10.60;67.60;;;;;;5052797;28;20178;-78
2022/07/15 00:02:41;;;;;;;5.77;2.47;;;10.70;67.40;;;;;;5052457;28;20178;-84
2022/07/15 00:05:09;;;;;;;4.43;2.30;;;10.70;67.40;;;;;;5052990;28;20183;-82
2022/07/15 00:07:40;;;;;;;5.17;2.27;;;11.00;67.70;;;;;;5044927;28;20257;-86
2022/07/15 00:10:21;;;;;;;5.63;2.27;;;11.10;66.50;;;;;;5033719;28;20220;-77
2022/07/15 00:13:08;;;;;;;2.60;2.20;;;11.20;66.40;;;;;;5045964;28;20182;-86
2022/07/15 00:15:35;;;;;;;3.50;2.10;;;11.30;66.60;;;;;;5034762;28;20202;-85
2022/07/15 00:18:04;;;;;;;6.10;2.00;;;11.40;65.90;;;;;;5033533;28;20180;-77
2022/07/15 00:20:35;;;;;;;3.40;2.33;;;11.40;65.60;;;;;;5032900;28;20172;-81
2022/07/15 00:23:04;;;;;;;4.37;2.00;;;11.50;65.10;;;;;;5033670;28;20222;-86
2022/07/15 00:25:32;;;;;;;2.40;1.80;;;11.60;64.60;;;;;;5041459;28;20665;-84
2022/07/15 00:28:01;;;;;;;4.37;2.30;;;11.70;64.30;;;;;;5034373;28;20690;-85
2022/07/15 00:30:31;;;;;;;6.07;1.97;;;11.70;64.10;;;;;;5051021;28;20716;-82
2022/07/15 00:33:00;;;;;;;2.20;2.00;;;11.70;64.10;;;;;;5051162;28;20275;-82
2022/07/15 00:35:28;;;;;;;3.83;2.07;;;11.80;63.70;;;;;;5042291;28;20176;-75
2022/07/15 00:37:56;;;;;;;1.97;1.77;;;11.80;63.50;;;;;;5033744;28;20191;-79
2022/07/15 00:40:24;;;;;;;4.10;1.97;;;12.00;63.70;;;;;;5033841;28;20184;-83
2022/07/15 00:42:51;;;;;;;2.13;1.87;;;12.20;63.30;;;;;;5053280;28;20186;-74
2022/07/15 00:45:21;;;;;;;3.40;2.00;;;12.30;62.70;;;;;;5046818;28;20172;-80
2022/07/15 00:47:54;;;;;;;2.77;1.70;;;12.30;62.40;;;;;;5032741;28;20180;-78
2022/07/15 00:50:23;;;;;;;2.83;2.00;;;12.30;63.00;;;;;;5046243;28;20183;-78
2022/07/15 00:53:16;;;;;;;3.63;2.10;;;12.50;62.40;;;;;;5051705;28;20708;-75
2022/07/15 00:55:45;;;;;;;2.63;2.00;;;12.60;61.30;;;;;;5034588;28;20196;-80
2022/07/15 00:58:19;;;;;;;4.07;1.93;;;12.70;62.20;;;;;;5032270;28;20192;-81
2022/07/15 01:00:49;;;;;;;3.60;2.20;;;12.80;62.20;;;;;;5032555;28;20591;-75
2022/07/15 01:03:18;;;;;;;7.67;1.83;;;12.80;60.80;;;;;;5045343;28;20180;-78
2022/07/15 01:05:47;;;;;;;2.60;1.80;;;12.80;61.00;;;;;;5051260;28;20287;-76
2022/07/15 01:08:17;;;;;;;3.40;1.80;;;13.00;60.90;;;;;;5032469;28;20209;-81
2022/07/15 01:10:45;;;;;;;3.23;1.80;;;13.00;60.50;;;;;;5032492;28;20192;-78
2022/07/15 01:13:13;;;;;;;3.37;1.80;;;13.30;59.30;;;;;;5040503;28;20636;-78
2022/07/15 01:15:40;;;;;;;1.57;1.47;;;13.30;58.50;;;;;;5049432;28;20245;-84
2022/07/15 01:18:07;;;;;;;3.40;1.60;;;13.50;58.10;;;;;;5048212;28;20187;-77
2022/07/15 01:20:40;;;;;;;4.13;1.90;;;13.70;58.60;;;;;;5049772;28;20653;-77
2022/07/15 01:23:07;;;;;;;12.37;2.27;;;13.80;58.10;;;;;;5041221;28;20207;-73
2022/07/15 01:25:35;;;;;;;4.53;1.90;;;13.80;58.90;;;;;;5049511;28;20481;-74
2022/07/15 01:28:03;;;;;;;3.57;1.60;;;13.90;58.00;;;;;;5048858;28;20273;-76
2022/07/15 01:30:30;;;;;;;3.90;1.93;;;14.20;57.30;;;;;;5051793;28;20192;-75
2022/07/15 01:32:58;;;;;;;3.20;1.77;;;14.30;56.50;;;;;;5047610;28;20172;-77
2022/07/15 01:35:25;;;;;;;2.90;1.80;;;14.20;56.30;;;;;;5044341;28;20203;-79
2022/07/15 01:37:52;;;;;;;4.53;1.70;;;14.30;56.50;;;;;;5049941;28;20242;-78
2022/07/15 01:40:20;;;;;;;2.37;1.70;;;14.30;56.30;;;;;;5050921;28;20180;-76
2022/07/15 01:42:48;;;;;;;2.33;1.50;;;14.50;55.60;;;;;;5046597;28;20545;-75
2022/07/15 01:45:15;;;;;;;2.00;1.60;;;14.50;55.70;;;;;;5041063;28;20189;-75
2022/07/15 01:47:44;;;;;;;2.20;1.83;;;14.70;55.50;;;;;;5044608;28;20186;-79
2022/07/15 01:50:12;;;;;;;5.47;1.60;;;14.80;54.90;;;;;;5048892;28;20220;-76
2022/07/15 01:52:40;;;;;;;3.63;1.47;;;15.00;54.10;;;;;;5049950;28;20189;-75
2022/07/15 01:55:09;;;;;;;1.90;1.40;;;15.10;53.70;;;;;;5044893;28;20188;-80
2022/07/15 01:57:36;;;;;;;2.37;1.43;;;15.10;52.60;;;;;;5045848;28;20181;-76
2022/07/15 02:00:06;;;;;;;2.83;1.33;;;15.30;52.50;;;;;;5042175;28;20182;-75
2022/07/15 02:02:33;;;;;;;3.27;1.50;;;15.30;51.30;;;;;;5048831;28;20191;-76
2022/07/15 02:05:01;;;;;;;3.13;1.50;;;15.50;51.80;;;;;;5047150;28;20186;-77
2022/07/15 02:07:29;;;;;;;2.07;1.30;;;15.40;52.00;;;;;;5042188;28;20210;-78
2022/07/15 02:09:56;;;;;;;2.23;1.40;;;15.50;52.30;;;;;;5040403;28;20246;-80
2022/07/15 02:12:25;;;;;;;2.57;1.47;;;15.50;51.70;;;;;;5041206;28;20172;-76
2022/07/15 02:14:52;;;;;;;3.77;1.60;;;15.60;52.00;;;;;;5042261;28;20172;-86
2022/07/15 02:17:20;;;;;;;3.47;1.50;;;15.60;51.80;;;;;;5043653;28;20586;-85
2022/07/15 02:19:47;;;;;;;2.13;1.30;;;15.50;51.70;;;;;;5045082;28;20187;-85
2022/07/15 02:22:14;;;;;;;2.37;1.17;;;15.80;50.70;;;;;;5044395;28;20288;-78
2022/07/15 02:24:42;;;;;;;2.60;1.20;;;16.00;50.20;;;;;;5049527;28;20546;-76
2022/07/15 02:27:09;;;;;;;1.93;1.23;;;16.00;51.00;;;;;;5038767;28;20178;-75
2022/07/15 02:29:37;;;;;;;1.90;1.20;;;15.90;50.80;;;;;;5040634;28;20246;-75
2022/07/15 02:32:04;;;;;;;1.77;1.30;;;16.00;50.70;;;;;;5042255;28;20184;-74
2022/07/15 02:34:32;;;;;;;3.33;1.13;;;16.20;50.10;;;;;;5044675;28;20266;-78
2022/07/15 02:36:59;;;;;;;4.43;1.27;;;16.50;50.00;;;;;;5042667;28;20272;-74
2022/07/15 02:39:27;;;;;;;1.33;1.00;;;16.70;48.20;;;;;;5053039;28;23353;-78
2022/07/15 02:41:54;;;;;;;5.17;1.70;;;16.50;49.30;;;;;;5044053;28;20192;-73
2022/07/15 02:44:22;;;;;;;3.80;1.40;;;16.80;47.70;;;;;;5051200;28;20180;-77
2022/07/15 02:46:49;;;;;;;2.50;1.00;;;16.60;49.60;;;;;;5053926;28;20187;-75
2022/07/15 02:49:16;;;;;;;1.93;1.30;;;16.80;47.60;;;;;;5047846;28;20700;-75
2022/07/15 02:51:44;;;;;;;4.87;1.30;;;16.80;47.50;;;;;;5050130;28;20191;-74
2022/07/15 02:54:11;;;;;;;2.80;1.20;;;16.70;47.30;;;;;;5053106;28;20184;-85
2022/07/15 02:56:39;;;;;;;4.27;1.67;;;16.90;47.10;;;;;;5053279;28;20179;-74
2022/07/15 02:59:06;;;;;;;2.93;1.20;;;17.10;48.10;;;;;;5035198;28;20173;-88
2022/07/15 03:01:33;;;;;;;4.07;1.27;;;17.00;47.20;;;;;;5034372;28;20221;-75
2022/07/15 03:04:01;;;;;;;2.20;1.23;;;17.40;45.90;;;;;;5034995;28;20230;-84
2022/07/15 03:06:28;;;;;;;4.77;1.27;;;17.60;45.50;;;;;;5034786;28;20699;-75
2022/07/15 03:08:56;;;;;;;3.77;1.20;;;17.70;45.00;;;;;;5034980;28;20212;-79
2022/07/15 03:11:23;;;;;;;2.60;1.10;;;17.40;44.00;;;;;;5047905;28;20557;-77
2022/07/15 03:13:52;;;;;;;3.77;1.07;;;17.30;44.10;;;;;;5035383;28;20279;-82
2022/07/15 03:16:19;;;;;;;3.07;1.23;;;17.30;44.60;;;;;;5034914;28;20184;-79
2022/07/15 03:18:47;;;;;;;3.13;1.20;;;17.30;44.70;;;;;;5034322;28;20200;-78
2022/07/15 03:21:14;;;;;;;2.87;1.30;;;17.60;45.10;;;;;;5034948;28;20181;-85
2022/07/15 03:23:41;;;;;;;2.87;1.30;;;17.50;44.80;;;;;;5035380;28;20180;-80
2022/07/15 03:26:09;;;;;;;6.53;1.27;;;17.90;44.70;;;;;;5051712;28;20680;-74
2022/07/15 03:28:36;;;;;;;1.77;1.17;;;18.10;44.40;;;;;;5036532;28;20228;-88
2022/07/15 03:31:04;;;;;;;4.80;1.50;;;18.30;44.00;;;;;;5040974;28;20205;-80
2022/07/15 03:33:31;;;;;;;2.70;1.20;;;18.40;42.90;;;;;;5050411;28;20604;-81
2022/07/15 03:35:58;;;;;;;2.57;0.97;;;18.60;42.80;;;;;;5054778;28;20178;-73
2022/07/15 03:38:27;;;;;;;4.23;1.50;;;18.80;42.10;;;;;;5053988;28;20191;-81
2022/07/15 03:40:55;;;;;;;5.97;1.03;;;18.80;42.50;;;;;;5044469;28;20188;-78
2022/07/15 03:43:26;;;;;;;5.93;1.33;;;18.90;41.40;;;;;;5048301;28;20181;-82
2022/07/15 03:45:54;;;;;;;4.47;1.30;;;19.00;41.10;;;;;;5034804;28;20183;-79
2022/07/15 03:48:22;;;;;;;2.43;1.60;;;18.80;41.90;;;;;;5034505;28;20563;-72
2022/07/15 03:50:49;;;;;;;7.13;1.13;;;18.90;41.00;;;;;;5047750;28;20279;-83
2022/07/15 03:53:17;;;;;;;2.20;1.10;;;19.00;41.10;;;;;;5054422;28;20180;-80
2022/07/15 03:55:44;;;;;;;2.77;1.23;;;18.90;41.40;;;;;;5040973;28;20188;-76
2022/07/15 03:58:12;;;;;;;1.87;1.00;;;19.10;40.10;;;;;;5047789;28;20187;-81
2022/07/15 04:00:39;;;;;;;2.43;1.00;;;19.30;39.00;;;;;;5045875;28;20181;-74
2022/07/15 04:03:06;;;;;;;2.43;1.00;;;19.20;39.80;;;;;;5044850;28;20183;-79
2022/07/15 04:05:34;;;;;;;3.63;1.10;;;18.90;39.70;;;;;;5046407;28;20183;-89
2022/07/15 04:08:01;;;;;;;4.83;1.20;;;19.00;40.70;;;;;;5053937;28;20263;-81
2022/07/15 04:10:29;;;;;;;3.13;1.03;;;18.80;40.30;;;;;;5053906;28;20171;-83
2022/07/15 04:12:56;;;;;;;4.00;1.20;;;19.00;40.30;;;;;;5048581;28;20185;-77
2022/07/15 04:15:23;;;;;;;5.57;1.20;;;19.20;38.90;;;;;;5051234;28;20278;-85
2022/07/15 04:17:51;;;;;;;1.73;1.07;;;19.60;39.00;;;;;;5049252;28;20214;-94
2022/07/15 04:20:18;;;;;;;4.63;1.10;;;20.00;38.00;;;;;;5038794;28;20193;-88
2022/07/15 04:22:47;;;;;;;1.50;0.90;;;20.10;37.20;;;;;;5045662;28;20670;-86
2022/07/15 04:25:18;;;;;;;4.33;1.00;;;20.40;36.50;;;;;;5053367;28;20180;-77
2022/07/15 04:27:46;;;;;;;2.83;1.17;;;20.30;36.50;;;;;;5049280;28;20235;-80
2022/07/15 04:30:13;;;;;;;3.37;1.30;;;20.20;36.80;;;;;;5052452;28;20230;-76
2022/07/15 04:32:41;;;;;;;2.40;1.23;;;20.80;36.70;;;;;;5040843;28;20191;-87
2022/07/15 04:35:09;;;;;;;8.30;1.10;;;20.90;35.10;;;;;;5046729;28;20176;-87
2022/07/15 04:37:37;;;;;;;3.23;1.20;;;20.90;35.90;;;;;;5047228;28;20220;-92
2022/07/15 04:40:07;;;;;;;5.10;1.10;;;21.00;36.20;;;;;;5043504;28;20181;-80
2022/07/15 04:42:34;;;;;;;7.80;1.00;;;21.10;35.50;;;;;;5040799;28;20229;-92
2022/07/15 04:45:02;;;;;;;4.67;1.00;;;20.50;37.30;;;;;;5035515;28;20176;-73
2022/07/15 04:47:29;;;;;;;4.33;2.00;;;21.20;36.40;;;;;;5037865;28;20188;-77
2022/07/15 04:52:48;;;;;;;2.50;0.90;;;20.80;35.70;;;;;;5035972;28;20187;-73
2022/07/15 04:55:16;;;;;;;2.63;1.10;;;20.40;37.10;;;;;;5045023;28;20317;-73
2022/07/15 04:57:44;;;;;;;4.37;1.40;;;20.40;35.70;;;;;;5045332;28;20184;-82
2022/07/15 05:00:12;;;;;;;3.00;1.20;;;20.80;35.00;;;;;;5051003;28;20172;-74
2022/07/15 05:02:39;;;;;;;2.27;0.97;;;20.60;35.30;;;;;;5032906;28;20536;-79
2022/07/15 05:05:07;;;;;;;3.90;1.00;;;20.40;35.90;;;;;;5031955;28;20184;-79
2022/07/15 05:07:37;;;;;;;2.50;1.00;;;20.70;35.90;;;;;;5031551;28;20173;-75
2022/07/15 05:10:09;;;;;;;3.57;1.30;;;20.90;35.60;;;;;;5038026;28;20261;-73
2022/07/15 05:12:36;;;;;;;3.67;1.00;;;20.80;35.20;;;;;;5037948;28;20229;-81
2022/07/15 05:15:04;;;;;;;2.63;1.23;;;21.20;34.90;;;;;;5035641;28;20183;-76
2022/07/15 05:17:32;;;;;;;1.40;0.83;;;21.30;35.00;;;;;;5037031;28;20177;-75
2022/07/15 05:20:00;;;;;;;5.47;1.20;;;20.90;34.90;;;;;;5047452;28;20634;-85
2022/07/15 05:22:27;;;;;;;4.33;1.10;;;20.80;35.30;;;;;;5045571;28;20181;-73
2022/07/15 05:24:55;;;;;;;3.17;0.90;;;21.00;34.80;;;;;;5040100;28;20239;-79
2022/07/15 05:27:22;;;;;;;7.27;1.20;;;21.50;33.80;;;;;;5034399;28;20184;-76
2022/07/15 05:29:50;;;;;;;4.57;1.00;;;21.70;33.80;;;;;;5034556;28;20452;-75
2022/07/15 05:32:17;;;;;;;5.90;1.10;;;21.80;33.30;;;;;;5040268;28;20184;-87
2022/07/15 05:34:45;;;;;;;3.13;1.30;;;21.90;33.10;;;;;;5035969;28;20233;-81
2022/07/15 05:37:13;;;;;;;5.03;1.07;;;21.30;33.30;;;;;;5032467;28;20180;-84
2022/07/15 05:39:56;;;;;;;3.40;1.30;;;21.40;33.90;;;;;;5041895;28;20270;-76
2022/07/15 05:42:25;;;;;;;2.73;1.40;;;21.40;34.10;;;;;;5033493;28;20675;-82
2022/07/15 05:44:52;;;;;;;3.37;1.20;;;21.30;34.40;;;;;;5038060;28;20650;-85
2022/07/15 05:47:20;;;;;;;5.07;1.27;;;21.90;33.40;;;;;;5039702;28;20723;-81
2022/07/15 05:49:48;;;;;;;3.83;1.40;;;21.40;33.10;;;;;;5032291;28;20243;-83
2022/07/15 05:52:15;;;;;;;2.17;1.00;;;21.40;33.60;;;;;;5034702;28;20188;-86
2022/07/15 05:54:43;;;;;;;2.33;0.90;;;21.20;34.40;;;;;;5040412;28;20234;-87
2022/07/15 05:57:10;;;;;;;2.53;1.20;;;21.90;32.30;;;;;;5042205;28;20252;-84
2022/07/15 05:59:38;;;;;;;7.30;1.27;;;21.90;32.70;;;;;;5052415;28;20214;-82
2022/07/15 06:02:06;;;;;;;3.87;1.50;;;21.50;34.10;;;;;;5051970;28;20655;-79
2022/07/15 06:04:34;;;;;;;2.00;1.37;;;21.20;34.10;;;;;;5041733;28;20242;-82
2022/07/15 06:07:01;;;;;;;5.37;1.30;;;21.20;34.50;;;;;;5044988;28;20255;-80
2022/07/15 06:09:29;;;;;;;4.77;1.30;;;20.90;34.80;;;;;;5050655;28;20686;-82
2022/07/15 06:11:56;;;;;;;3.03;1.20;;;21.50;33.00;;;;;;5046905;28;20291;-80
2022/07/15 06:14:24;;;;;;;4.70;1.50;;;20.90;33.90;;;;;;5043167;28;20188;-78
2022/07/15 06:16:51;;;;;;;3.30;1.30;;;19.70;37.10;;;;;;5055872;28;20176;-79
2022/07/15 06:19:18;;;;;;;2.80;1.27;;;19.10;37.90;;;;;;5053150;28;20649;-78
2022/07/15 06:21:46;;;;;;;4.33;1.13;;;18.20;39.80;;;;;;5048878;28;20187;-78
2022/07/15 06:24:13;;;;;;;4.73;1.57;;;18.10;40.10;;;;;;5055370;28;20250;-80
2022/07/15 06:26:41;;;;;;;5.47;2.90;;;18.10;40.00;;;;;;5052013;28;20732;-77
2022/07/15 06:29:08;;;;;;;4.33;1.50;;;17.80;40.20;;;;;;5041984;28;20259;-76
2022/07/15 06:31:36;;;;;;;5.70;1.43;;;17.40;41.80;;;;;;5055550;28;20243;-82
2022/07/15 06:34:03;;;;;;;5.40;1.30;;;16.90;42.90;;;;;;5055164;28;20184;-76
2022/07/15 06:36:31;;;;;;;2.40;1.30;;;16.50;43.90;;;;;;5054936;28;20182;-78
2022/07/15 06:38:58;;;;;;;5.80;4.10;;;16.30;45.80;;;;;;5055128;28;20193;-77
2022/07/15 06:41:25;;;;;;;26.50;18.80;;;15.90;46.50;;;;;;5054241;28;20298;-74
2022/07/15 06:43:53;;;;;;;9.13;3.73;;;15.80;48.10;;;;;;5054223;28;20274;-78
2022/07/15 06:46:23;;;;;;;7.03;2.37;;;15.70;49.00;;;;;;5087036;28;20305;-76
2022/07/15 06:48:51;;;;;;;6.27;1.60;;;15.40;49.80;;;;;;5049985;28;20212;-78
2022/07/15 06:51:18;;;;;;;3.10;1.80;;;15.30;50.30;;;;;;5047341;28;20182;-81
2022/07/15 06:53:46;;;;;;;2.47;1.50;;;15.20;50.90;;;;;;5053575;28;20178;-80
2022/07/15 06:56:14;;;;;;;5.23;1.70;;;15.00;52.00;;;;;;5047748;28;20185;-76
2022/07/15 06:58:41;;;;;;;6.87;1.90;;;15.00;53.80;;;;;;5049788;28;20371;-78
2022/07/15 07:01:09;;;;;;;6.03;2.20;;;14.80;53.60;;;;;;5053078;28;20180;-81
2022/07/15 07:03:36;;;;;;;7.00;2.10;;;14.70;54.30;;;;;;5052894;28;20176;-79
2022/07/15 07:06:05;;;;;;;5.03;1.90;;;14.60;56.10;;;;;;5053565;28;20195;-83
2022/07/15 07:08:36;;;;;;;7.27;2.20;;;14.50;56.70;;;;;;5052284;28;20239;-76
2022/07/15 07:11:03;;;;;;;8.47;2.20;;;14.30;56.10;;;;;;5044916;28;20172;-78
2022/07/15 07:13:31;;;;;;;9.57;2.80;;;14.20;56.30;;;;;;5043174;28;20178;-73
2022/07/15 07:15:59;;;;;;;5.27;1.90;;;14.10;57.90;;;;;;5055562;28;20184;-82
2022/07/15 07:18:27;;;;;;;3.33;1.97;;;13.90;58.40;;;;;;5054228;28;20262;-78
2022/07/15 07:20:54;;;;;;;10.93;2.23;;;13.80;57.80;;;;;;5052157;28;20192;-73
2022/07/15 07:23:26;;;;;;;4.27;2.10;;;13.80;58.00;;;;;;5049040;28;20225;-80
2022/07/15 07:25:56;;;;;;;6.83;2.03;;;13.70;58.60;;;;;;5048852;28;20191;-79
2022/07/15 07:28:24;;;;;;;7.37;2.60;;;13.60;59.80;;;;;;5051536;28;20247;-76
2022/07/15 07:30:54;;;;;;;6.87;2.97;;;13.50;60.40;;;;;;5053344;28;20742;-77
2022/07/15 07:33:22;;;;;;;6.67;2.80;;;13.40;61.10;;;;;;5049003;28;20187;-80
2022/07/15 07:35:49;;;;;;;8.20;2.47;;;13.20;61.30;;;;;;5051985;28;20230;-81
2022/07/15 07:38:18;;;;;;;16.53;6.20;;;13.20;62.10;;;;;;5043538;28;20617;-75
2022/07/15 07:40:49;;;;;;;11.83;5.07;;;13.00;63.60;;;;;;5054185;28;20195;-73
2022/07/15 07:43:18;;;;;;;9.83;4.00;;;13.00;64.20;;;;;;5054336;28;20180;-81
2022/07/15 07:45:47;;;;;;;8.53;3.97;;;12.90;64.70;;;;;;5054299;28;20547;-79
2022/07/15 07:48:16;;;;;;;9.13;4.07;;;12.80;65.50;;;;;;5040349;28;20176;-81
2022/07/15 07:50:45;;;;;;;14.50;6.43;;;12.80;66.10;;;;;;5053832;28;20242;-72
2022/07/15 07:53:12;;;;;;;11.93;8.40;;;12.70;65.70;;;;;;5052923;28;20172;-75
2022/07/15 07:55:40;;;;;;;20.23;9.40;;;12.70;65.80;;;;;;5047881;28;20187;-81
2022/07/15 07:58:08;;;;;;;14.33;8.40;;;12.50;66.20;;;;;;5053903;28;20187;-80
2022/07/15 08:00:36;;;;;;;14.63;8.33;;;12.50;67.00;;;;;;5053723;28;20261;-74
2022/07/15 08:03:04;;;;;;;16.03;7.20;;;12.50;67.30;;;;;;5049101;28;20173;-78
2022/07/15 08:05:31;;;;;;;11.23;6.60;;;12.40;67.90;;;;;;5052259;28;20180;-73
2022/07/15 08:08:16;;;;;;;11.23;5.83;;;12.40;67.90;;;;;;5053492;28;20176;-80
2022/07/15 08:10:46;;;;;;;17.33;9.77;;;12.30;68.30;;;;;;5053509;28;20195;-75
2022/07/15 08:13:14;;;;;;;15.83;10.97;;;12.30;68.50;;;;;;5053194;28;20179;-79
2022/07/15 08:15:42;;;;;;;22.07;13.33;;;12.20;68.80;;;;;;5053234;28;20545;-76
2022/07/15 08:18:10;;;;;;;22.07;13.33;;;12.10;69.20;;;;;;5053420;28;20184;-72
2022/07/15 08:20:38;;;;;;;19.07;10.30;;;12.10;69.50;;;;;;5051843;28;20179;-79
2022/07/15 08:23:06;;;;;;;19.13;9.60;;;12.00;70.30;;;;;;5053199;28;20671;-75
2022/07/15 08:25:38;;;;;;;20.83;10.50;;;12.00;71.50;;;;;;5053325;28;20541;-81
2022/07/15 08:28:07;;;;;;;18.53;9.80;;;11.90;71.00;;;;;;5051875;28;20228;-75
2022/07/15 08:30:35;;;;;;;17.80;9.17;;;11.90;70.60;;;;;;5032903;28;20204;-71
2022/07/15 08:33:03;;;;;;;14.07;8.17;;;11.80;70.80;;;;;;5078359;28;20179;-75
2022/07/15 08:35:31;;;;;;;13.77;8.10;;;11.80;71.00;;;;;;5032987;28;20184;-75
2022/07/15 08:37:59;;;;;;;18.73;7.97;;;11.80;71.60;;;;;;5033420;28;20247;-82
2022/07/15 08:40:28;;;;;;;11.93;6.80;;;11.80;71.30;;;;;;5033554;28;20264;-82
2022/07/15 08:42:55;;;;;;;11.40;5.73;;;11.70;71.70;;;;;;5033617;28;20271;-82
2022/07/15 08:45:22;;;;;;;14.90;5.10;;;11.70;71.40;;;;;;5033404;28;20179;-83
2022/07/15 08:47:52;;;;;;;9.50;5.30;;;11.60;71.20;;;;;;5039743;28;20646;-83
2022/07/15 08:50:22;;;;;;;9.70;5.20;;;11.60;70.30;;;;;;5043037;28;20215;-83
2022/07/15 08:52:51;;;;;;;10.43;5.20;;;11.60;70.30;;;;;;5032989;28;20176;-84
2022/07/15 08:55:21;;;;;;;10.57;4.97;;;11.60;70.50;;;;;;5043765;28;20176;-83
2022/07/15 08:57:50;;;;;;;10.67;5.20;;;11.50;70.50;;;;;;5040814;28;20176;-82
2022/07/15 09:00:18;;;;;;;11.13;5.37;;;11.40;70.50;;;;;;5044958;28;20722;-82
2022/07/15 09:02:46;;;;;;;7.93;5.10;;;11.40;70.80;;;;;;5043241;28;20258;-82
2022/07/15 09:05:36;;;;;;;9.93;4.80;;;11.30;71.10;;;;;;5047187;28;20190;-83
2022/07/15 09:08:16;;;;;;;11.20;4.77;;;11.30;71.40;;;;;;5038674;28;20180;-83
2022/07/15 09:10:45;;;;;;;11.77;4.90;;;11.20;71.30;;;;;;5046790;28;20297;-75
2022/07/15 09:13:33;;;;;;;11.07;5.57;;;11.10;71.20;;;;;;5037351;28;20167;-81
2022/07/15 09:16:11;;;;;;;13.27;5.70;;;11.00;71.50;;;;;;5042859;28;20223;-83
2022/07/15 09:18:39;;;;;;;9.03;6.40;;;11.00;71.30;;;;;;5032993;28;20546;-82
2022/07/15 09:21:18;;;;;;;13.53;6.50;;;11.00;71.70;;;;;;5032968;28;20187;-82
2022/07/15 09:23:47;;;;;;;15.17;7.70;;;10.90;71.90;;;;;;5039357;28;20172;-83
2022/07/15 09:26:36;;;;;;;15.87;7.87;;;10.90;72.10;;;;;;5043976;28;20175;-82
2022/07/15 09:33:34;;;;;;;12.83;7.97;;;10.80;72.30;;;;;;5038392;28;20238;-81
2022/07/15 09:38:00;;;;;;;20.87;8.83;;;10.70;73.40;;;;;;5042783;28;20190;-76
2022/07/15 09:40:28;;;;;;;20.93;9.47;;;10.70;73.80;;;;;;5042438;28;20182;-78
2022/07/15 09:43:06;;;;;;;17.23;8.37;;;10.70;74.20;;;;;;5051958;28;20183;-82
2022/07/15 09:45:34;;;;;;;11.97;8.20;;;10.70;74.30;;;;;;5053905;28;20170;-74
2022/07/15 09:48:15;;;;;;;18.13;8.70;;;10.60;74.30;;;;;;5055836;28;20179;-73
2022/07/15 09:50:42;;;;;;;15.63;8.60;;;10.50;74.50;;;;;;5043291;28;20241;-83
2022/07/15 09:53:16;;;;;;;16.60;9.27;;;10.50;74.60;;;;;;5055381;28;20201;-74
2022/07/15 09:55:44;;;;;;;14.07;8.63;;;10.40;74.70;;;;;;5056207;28;20203;-83
2022/07/15 09:58:11;;;;;;;16.53;8.27;;;10.30;74.90;;;;;;5054628;28;20220;-73
2022/07/15 10:00:39;;;;;;;13.90;8.07;;;10.30;75.20;;;;;;5055739;28;20180;-75
2022/07/15 10:03:06;;;;;;;15.70;8.27;;;10.30;75.30;;;;;;5055846;28;20670;-82
2022/07/15 10:05:38;;;;;;;12.17;7.40;;;10.20;74.90;;;;;;5055111;28;20188;-75
2022/07/15 10:08:09;;;;;;;12.67;7.90;;;10.20;75.30;;;;;;5055102;28;20634;-77
2022/07/15 10:10:39;;;;;;;15.37;8.67;;;10.20;75.40;;;;;;5055673;28;20211;-73
2022/07/15 10:13:27;;;;;;;14.80;7.90;;;10.20;75.60;;;;;;5055424;28;20219;-73
2022/07/15 10:16:08;;;;;;;17.03;10.53;;;10.10;75.90;;;;;;5041476;28;20178;-73
2022/07/15 10:19:11;;;;;;;14.03;10.27;;;10.10;76.10;;;;;;5055457;28;20203;-73
2022/07/15 10:22:26;;;;;;;17.97;9.30;;;10.00;76.30;;;;;;5054874;28;20232;-79
2022/07/15 10:25:16;;;;;;;20.90;8.70;;;10.00;76.90;;;;;;5055021;28;20198;-80
2022/07/15 10:27:54;;;;;;;17.63;8.63;;;10.00;77.00;;;;;;5054735;28;20223;-81
2022/07/15 10:30:25;;;;;;;17.20;8.73;;;10.00;77.70;;;;;;5054802;28;20703;-73
2022/07/15 10:33:04;;;;;;;14.60;8.83;;;9.90;77.80;;;;;;5055297;28;20233;-74
2022/07/15 10:35:41;;;;;;;17.20;9.70;;;9.90;78.10;;;;;;5055293;28;20187;-75
2022/07/15 10:38:35;;;;;;;25.03;11.67;;;9.80;78.30;;;;;;5055778;28;20182;-77
2022/07/15 10:41:06;;;;;;;25.93;13.93;;;9.80;78.70;;;;;;5055334;28;20280;-80
2022/07/15 10:43:49;;;;;;;23.13;14.13;;;9.80;79.20;;;;;;5055315;28;20699;-79
2022/07/15 10:46:16;;;;;;;22.03;13.50;;;9.70;79.20;;;;;;5054765;28;20213;-82
2022/07/15 10:49:13;;;;;;;27.00;14.30;;;9.70;79.50;;;;;;5054828;28;20646;-84
2022/07/15 10:51:40;;;;;;;29.57;13.20;;;9.70;79.30;;;;;;5041477;28;20209;-73
2022/07/15 10:54:11;;;;;;;24.87;11.80;;;9.70;80.00;;;;;;5054573;28;20288;-79
2022/07/15 10:56:49;;;;;;;20.43;10.90;;;9.70;80.80;;;;;;5053598;28;20182;-82
2022/07/15 10:59:25;;;;;;;22.37;10.03;;;9.70;80.90;;;;;;5087024;28;20570;-73
2022/07/15 11:02:13;;;;;;;21.27;11.10;;;9.70;81.30;;;;;;5054360;28;20188;-72
2022/07/15 11:04:42;;;;;;;16.20;10.33;;;9.70;81.40;;;;;;5052301;28;20188;-81
2022/07/15 11:07:10;;;;;;;17.40;10.10;;;9.70;82.00;;;;;;5052769;28;20228;-78
2022/07/15 11:10:03;;;;;;;17.80;10.33;;;9.70;82.20;;;;;;5054437;28;20294;-81
2022/07/15 11:12:30;;;;;;;19.03;9.23;;;9.70;82.30;;;;;;5039614;28;20180;-85
2022/07/15 11:15:04;;;;;;;12.73;9.90;;;9.70;82.40;;;;;;5043236;28;20188;-85
2022/07/15 11:17:34;;;;;;;14.00;9.80;;;9.70;82.50;;;;;;5042286;28;20179;-78
2022/07/15 11:20:09;;;;;;;17.33;9.87;;;9.70;82.70;;;;;;5038219;28;20232;-76
2022/07/15 11:22:39;;;;;;;14.67;10.10;;;9.70;82.80;;;;;;5054282;28;20285;-83
2022/07/15 11:25:16;;;;;;;16.67;11.20;;;9.60;82.70;;;;;;5054691;28;20186;-82
2022/07/15 11:28:01;;;;;;;20.87;11.80;;;9.60;83.10;;;;;;5053633;28;20230;-83
2022/07/15 11:30:56;;;;;;;20.80;14.10;;;9.60;83.00;;;;;;5053011;28;20241;-79
2022/07/15 11:33:25;;;;;;;21.03;14.20;;;9.50;83.10;;;;;;5052998;28;20287;-82
2022/07/15 11:35:58;;;;;;;18.40;12.37;;;9.50;83.10;;;;;;5052356;28;20663;-82
2022/07/15 11:38:29;;;;;;;18.70;13.07;;;9.30;82.80;;;;;;5053294;28;20197;-77
2022/07/15 11:46:46;;;;;;;15.03;10.60;;;9.20;83.20;;;;;;5044370;28;20214;-75
2022/07/15 11:49:31;;;;;;;16.80;10.70;;;9.20;83.20;;;;;;5050923;28;20221;-76
2022/07/15 11:51:59;;;;;;;16.20;11.40;;;9.20;83.00;;;;;;5050148;28;20188;-74
2022/07/15 11:54:27;;;;;;;13.43;9.93;;;9.10;83.00;;;;;;5053242;28;20223;-75
2022/07/15 11:56:59;;;;;;;14.87;9.10;;;9.10;83.20;;;;;;5051395;28;20682;-77
2022/07/15 11:59:28;;;;;;;12.00;8.43;;;9.10;83.20;;;;;;5053801;28;20230;-74
2022/07/15 12:02:10;;;;;;;12.37;7.60;;;9.00;83.20;;;;;;5053031;28;20190;-84
2022/07/15 12:04:39;;;;;;;14.47;8.63;;;9.00;83.30;;;;;;5053891;28;20217;-83
2022/07/15 12:07:07;;;;;;;15.13;9.20;;;9.10;83.70;;;;;;5053228;28;20190;-83
2022/07/15 12:09:46;;;;;;;12.97;9.63;;;9.00;82.90;;;;;;5052691;28;20302;-77
2022/07/15 12:12:14;;;;;;;19.63;10.00;;;9.00;83.20;;;;;;5052732;28;20265;-80
2022/07/15 12:14:42;;;;;;;15.37;9.60;;;9.00;83.30;;;;;;5053495;28;20179;-82
2022/07/15 12:17:10;;;;;;;13.90;9.80;;;9.00;83.50;;;;;;5053174;28;20180;-82
2022/07/15 12:19:38;;;;;;;13.80;9.57;;;9.00;83.30;;;;;;5054046;28;20236;-72
2022/07/15 12:22:10;;;;;;;13.40;8.50;;;8.90;83.30;;;;;;5053985;28;20230;-77
2022/07/15 12:24:45;;;;;;;16.70;7.93;;;8.90;83.20;;;;;;5052953;28;20181;-73
2022/07/15 12:27:14;;;;;;;11.57;7.97;;;8.90;83.00;;;;;;5053325;28;20171;-72
2022/07/15 12:29:43;;;;;;;12.33;7.50;;;8.90;82.90;;;;;;5052401;28;20234;-75
2022/07/15 12:32:13;;;;;;;11.23;8.03;;;8.90;83.20;;;;;;5053528;28;20179;-72
2022/07/15 12:34:58;;;;;;;18.30;9.20;;;8.90;83.00;;;;;;5040017;28;20547;-78
2022/07/15 12:37:27;;;;;;;12.13;9.00;;;8.80;83.20;;;;;;5053472;28;20178;-77
2022/07/15 12:39:57;;;;;;;15.90;9.83;;;8.70;83.10;;;;;;5052525;28;20181;-77
2022/07/15 12:42:26;;;;;;;18.33;10.97;;;8.80;83.20;;;;;;5053065;28;20684;-75
2022/07/15 12:45:14;;;;;;;16.20;10.47;;;8.70;83.40;;;;;;5053233;28;20200;-79
2022/07/15 12:48:00;;;;;;;16.23;10.33;;;8.70;83.50;;;;;;5053118;28;20206;-77
2022/07/15 12:50:29;;;;;;;17.70;11.40;;;8.70;83.70;;;;;;5052590;28;20214;-79
2022/07/15 12:52:57;;;;;;;16.10;10.97;;;8.70;83.70;;;;;;5052843;28;20181;-78
2022/07/15 12:55:41;;;;;;;19.37;11.50;;;8.70;84.10;;;;;;5053092;28;20234;-77
2022/07/15 12:58:14;;;;;;;18.10;11.73;;;8.60;84.10;;;;;;5052987;28;20244;-75
2022/07/15 13:00:44;;;;;;;17.47;10.30;;;8.50;83.90;;;;;;5053242;28;20181;-76
2022/07/15 13:03:12;;;;;;;19.73;11.60;;;8.60;84.40;;;;;;5052956;28;20186;-80
2022/07/15 13:05:47;;;;;;;17.03;11.70;;;8.50;84.00;;;;;;5038929;28;20212;-84
2022/07/15 13:08:26;;;;;;;17.53;11.30;;;8.60;84.80;;;;;;5051606;28;20196;-82
2022/07/15 13:10:57;;;;;;;20.80;11.50;;;8.50;84.80;;;;;;5053748;28;20177;-82
2022/07/15 13:13:26;;;;;;;23.10;11.67;;;8.50;84.90;;;;;;5053184;28;20178;-83